createdAt,value
2023-04-12T00:01:32.754Z,96076.06
2023-04-12T00:04:04.373Z,96059.84
2023-04-12T00:06:33.461Z,96065.94
2023-04-12T00:09:01.328Z,96032.59
2023-04-12T00:11:29.686Z,96054.44
2023-04-12T00:13:58.854Z,96041.22
2023-04-12T00:16:26.774Z,96013.66
2023-04-12T00:18:55.521Z,96017.28
2023-04-12T00:21:23.891Z,95982.66
2023-04-12T00:23:51.747Z,95998.00
2023-04-12T00:26:21.805Z,95998.81
2023-04-12T00:28:49.589Z,95992.31
2023-04-12T00:31:18.753Z,95996.28
2023-04-12T00:33:46.875Z,95980.00
2023-04-12T00:36:14.710Z,95987.00
2023-04-12T00:38:43.285Z,95984.72
2023-04-12T00:41:11.110Z,95985.97
2023-04-12T00:43:39.365Z,95974.16
2023-04-12T00:46:07.932Z,95968.72
2023-04-12T00:48:38.276Z,95964.19
2023-04-12T00:51:08.326Z,95963.03
2023-04-12T00:53:36.775Z,95948.59
2023-04-12T00:56:05.547Z,95950.19
2023-04-12T00:58:33.384Z,95939.66
2023-04-12T01:01:01.280Z,95940.56
2023-04-12T01:03:31.183Z,95936.28
2023-04-12T01:06:13.891Z,95912.47
2023-04-12T01:08:55.245Z,95921.88
2023-04-12T01:11:32.300Z,95925.25
2023-04-12T01:14:07.523Z,95929.47
2023-04-12T01:16:44.319Z,95918.19
2023-04-12T01:19:30.906Z,95920.34
2023-04-12T01:22:13.657Z,95901.97
2023-04-12T01:24:55.939Z,95911.44
2023-04-12T01:27:35.497Z,95903.44
2023-04-12T01:30:07.717Z,95880.78
2023-04-12T01:32:37.901Z,95896.72
2023-04-12T01:35:10.151Z,95886.94
2023-04-12T01:37:38.224Z,95896.56
2023-04-12T01:40:09.269Z,95861.84
2023-04-12T01:42:38.383Z,95878.19
2023-04-12T01:45:07.451Z,95855.19
2023-04-12T01:47:36.053Z,95843.41
2023-04-12T01:50:13.048Z,95847.81
2023-04-12T01:52:49.407Z,95843.63
2023-04-12T01:55:18.632Z,95844.31
2023-04-12T01:57:49.399Z,95851.25
2023-04-12T02:00:19.170Z,95849.41
2023-04-12T02:02:47.300Z,95844.69
2023-04-12T02:05:16.370Z,95830.00
2023-04-12T02:07:44.987Z,95809.63
2023-04-12T02:10:15.426Z,95829.41
2023-04-12T02:12:43.192Z,95841.19
2023-04-12T02:15:13.270Z,95830.34
2023-04-12T02:17:41.081Z,95807.09
2023-04-12T02:20:11.918Z,95826.84
2023-04-12T02:22:39.817Z,95791.41
2023-04-12T02:25:08.232Z,95789.34
2023-04-12T02:27:36.030Z,95808.22
2023-04-12T02:30:04.507Z,95849.59
2023-04-12T02:32:45.252Z,95837.44
2023-04-12T02:35:14.500Z,95846.31
2023-04-12T02:37:43.872Z,95843.16
2023-04-12T02:40:12.698Z,95821.41
2023-04-12T02:42:40.606Z,95831.25
2023-04-12T02:45:09.181Z,95792.03
2023-04-12T02:47:38.578Z,95791.66
2023-04-12T02:50:07.740Z,95792.47
2023-04-12T02:52:35.589Z,95787.41
2023-04-12T02:55:03.754Z,95790.41
2023-04-12T02:57:31.633Z,95804.19
2023-04-12T02:59:59.442Z,95800.34
2023-04-12T03:02:27.776Z,95792.38
2023-04-12T03:04:57.085Z,95724.38
2023-04-12T03:07:25.036Z,95790.19
2023-04-12T03:09:52.733Z,95783.47
2023-04-12T03:12:20.553Z,95749.66
2023-04-12T03:14:48.376Z,95750.13
2023-04-12T03:17:16.104Z,95754.78
2023-04-12T03:19:43.880Z,95739.94
2023-04-12T03:22:13.043Z,95742.94
2023-04-12T03:24:42.987Z,95749.75
2023-04-12T03:27:10.801Z,95752.22
2023-04-12T03:29:38.607Z,95747.38
2023-04-12T03:32:06.566Z,95749.91
2023-04-12T03:34:34.420Z,95754.22
2023-04-12T03:37:02.866Z,95744.94
2023-04-12T03:39:32.028Z,95738.34
2023-04-12T03:41:59.773Z,95742.41
2023-04-12T03:44:27.576Z,95702.84
2023-04-12T03:46:55.376Z,95684.09
2023-04-12T03:49:23.158Z,95702.84
2023-04-12T03:51:52.437Z,95694.84
2023-04-12T03:54:20.301Z,95696.25
2023-04-12T03:56:49.414Z,95716.72
2023-04-12T03:59:17.463Z,95712.91
2023-04-12T04:01:45.190Z,95726.91
2023-04-12T04:04:13.162Z,95708.03
2023-04-12T04:06:41.145Z,95701.00
2023-04-12T04:09:09.194Z,95685.22
2023-04-12T04:11:37.789Z,95688.09
2023-04-12T04:14:07.329Z,95676.66
2023-04-12T04:16:35.082Z,95694.22
2023-04-12T04:19:02.871Z,95696.44
2023-04-12T04:21:32.185Z,95698.22
2023-04-12T04:24:02.410Z,95709.44
2023-04-12T04:26:33.571Z,95714.75
2023-04-12T04:29:05.170Z,95712.34
2023-04-12T04:31:36.401Z,95700.53
2023-04-12T04:34:05.637Z,95697.97
2023-04-12T04:36:35.132Z,95691.63
2023-04-12T04:39:03.520Z,95690.19
2023-04-12T04:41:34.680Z,95691.03
2023-04-12T04:44:04.508Z,95698.44
2023-04-12T04:46:32.309Z,95690.91
2023-04-12T04:49:02.461Z,95683.16
2023-04-12T04:51:30.637Z,95692.75
2023-04-12T04:53:58.666Z,95670.44
2023-04-12T04:56:26.588Z,95682.94
2023-04-12T04:58:56.870Z,95689.06
2023-04-12T05:01:26.064Z,95679.09
2023-04-12T05:03:55.669Z,95661.25
2023-04-12T05:06:25.780Z,95653.44
2023-04-12T05:08:53.493Z,95651.34
2023-04-12T05:11:21.347Z,95635.94
2023-04-12T05:13:49.207Z,95643.03
2023-04-12T05:16:17.030Z,95645.41
2023-04-12T05:18:45.248Z,95626.81
2023-04-12T05:21:13.076Z,95639.06
2023-04-12T05:23:46.236Z,95634.38
2023-04-12T05:26:14.254Z,95644.00
2023-04-12T05:28:42.013Z,95638.34
2023-04-12T05:31:09.861Z,95629.06
2023-04-12T05:33:37.966Z,95619.91
2023-04-12T05:36:06.637Z,95624.78
2023-04-12T05:38:34.519Z,95627.28
2023-04-12T05:41:04.729Z,95610.63
2023-04-12T05:43:32.976Z,95556.34
2023-04-12T05:46:00.932Z,95615.63
2023-04-12T05:48:29.042Z,95599.84
2023-04-12T05:50:56.876Z,95613.53
2023-04-12T05:53:24.727Z,95615.47
2023-04-12T05:55:54.278Z,95589.19
2023-04-12T05:58:23.411Z,95608.13
2023-04-12T06:00:51.430Z,95602.75
2023-04-12T06:03:19.445Z,95585.06
2023-04-12T06:05:47.827Z,95584.19
2023-04-12T06:08:15.840Z,95571.00
2023-04-12T06:10:44.108Z,95578.69
2023-04-12T06:13:11.838Z,95572.78
2023-04-12T06:15:41.105Z,95567.00
2023-04-12T06:18:08.898Z,95557.63
2023-04-12T06:20:40.116Z,95554.88
2023-04-12T06:23:07.851Z,95555.06
2023-04-12T06:25:35.578Z,95547.28
2023-04-12T06:28:03.323Z,95543.97
2023-04-12T06:30:31.257Z,95536.59
2023-04-12T06:33:00.666Z,95553.84
2023-04-12T06:35:28.452Z,95554.72
2023-04-12T06:37:56.143Z,95539.34
2023-04-12T06:40:23.941Z,95530.66
2023-04-12T06:42:51.812Z,95527.38
2023-04-12T06:45:20.224Z,95531.81
2023-04-12T06:47:48.389Z,95525.56
2023-04-12T06:50:18.523Z,95513.59
2023-04-12T06:52:48.332Z,95515.25
2023-04-12T06:55:16.290Z,95507.75
2023-04-12T06:57:44.662Z,95491.88
2023-04-12T07:00:13.626Z,95479.56
2023-04-12T07:02:41.515Z,95473.09
2023-04-12T07:05:09.944Z,95464.28
2023-04-12T07:07:39.026Z,95458.34
2023-04-12T07:10:08.380Z,95456.16
2023-04-12T07:12:36.158Z,95451.94
2023-04-12T07:15:04.435Z,95436.22
2023-04-12T07:17:32.265Z,95437.03
2023-04-12T07:20:00.194Z,95423.53
2023-04-12T07:22:27.986Z,95421.28
2023-04-12T07:24:57.252Z,95408.41
2023-04-12T07:27:25.239Z,95372.34
2023-04-12T07:29:53.344Z,95420.59
2023-04-12T07:32:21.438Z,95398.63
2023-04-12T07:34:49.529Z,95423.84
2023-04-12T07:37:17.904Z,95412.53
2023-04-12T07:39:45.944Z,95423.13
2023-04-12T07:42:15.298Z,95419.44
2023-04-12T07:44:43.126Z,95419.31
2023-04-12T07:47:10.923Z,95421.41
2023-04-12T07:49:38.665Z,95408.69
2023-04-12T07:52:06.617Z,95413.78
2023-04-12T07:54:34.365Z,95406.53
2023-04-12T07:57:03.810Z,95402.25
2023-04-12T07:59:33.269Z,95396.91
2023-04-12T08:02:01.976Z,95398.19
2023-04-12T08:04:29.939Z,95395.00
2023-04-12T08:06:57.831Z,95392.31
2023-04-12T08:09:25.953Z,95396.34
2023-04-12T08:11:53.919Z,95402.78
2023-04-12T08:14:21.723Z,95404.31
2023-04-12T08:16:50.991Z,95404.91
2023-04-12T08:19:19.592Z,95409.03
2023-04-12T08:21:47.543Z,95410.44
2023-04-12T08:24:15.441Z,95408.31
2023-04-12T08:26:43.173Z,95399.78
2023-04-12T08:29:10.962Z,95393.44
2023-04-12T08:31:39.051Z,95397.34
2023-04-12T08:34:08.327Z,95394.69
2023-04-12T08:36:36.100Z,95393.00
2023-04-12T08:39:04.242Z,95384.06
2023-04-12T08:41:32.130Z,95381.78
2023-04-12T08:44:00.836Z,95387.09
2023-04-12T08:46:30.137Z,95374.84
2023-04-12T08:48:58.467Z,95383.50
2023-04-12T08:51:27.999Z,95376.44
2023-04-12T08:53:56.569Z,95382.38
2023-04-12T08:56:25.063Z,95372.50
2023-04-12T08:58:53.988Z,95366.28
2023-04-12T09:01:22.351Z,95369.66
2023-04-12T09:03:50.375Z,95361.72
2023-04-12T09:06:18.637Z,95364.81
2023-04-12T09:08:56.059Z,95354.88
2023-04-12T09:11:26.064Z,95357.34
2023-04-12T09:13:55.444Z,95362.44
2023-04-12T09:16:40.388Z,95361.94
2023-04-12T09:19:08.869Z,95363.13
2023-04-12T09:21:37.617Z,95341.72
2023-04-12T09:24:14.030Z,95348.19
2023-04-12T09:26:42.464Z,95348.31
2023-04-12T09:29:24.234Z,95338.44
2023-04-12T09:32:02.265Z,95344.59
2023-04-12T09:34:30.572Z,95324.03
2023-04-12T09:36:58.760Z,95319.72
2023-04-12T09:39:43.540Z,95328.25
2023-04-12T09:42:25.708Z,95327.22
2023-04-12T09:45:01.752Z,95324.94
2023-04-12T09:47:40.133Z,95317.47
2023-04-12T09:50:09.992Z,95318.84
2023-04-12T09:52:40.212Z,95308.25
2023-04-12T09:55:11.625Z,95311.72
2023-04-12T09:57:41.692Z,95302.94
2023-04-12T10:00:14.385Z,95301.00
2023-04-12T10:02:45.126Z,95301.69
2023-04-12T10:05:17.056Z,95296.00
2023-04-12T10:07:46.282Z,95305.09
2023-04-12T10:10:17.770Z,95295.31
2023-04-12T10:12:47.523Z,95292.56
2023-04-12T10:15:17.813Z,95298.69
2023-04-12T10:17:47.669Z,95305.00
2023-04-12T10:20:17.722Z,95308.50
2023-04-12T10:22:47.841Z,95296.50
2023-04-12T10:25:18.613Z,95298.59
2023-04-12T10:27:47.526Z,95308.91
2023-04-12T10:30:26.182Z,95300.19
2023-04-12T10:33:15.087Z,95302.19
2023-04-12T10:35:57.564Z,95295.38
2023-04-12T10:38:27.359Z,95291.47
2023-04-12T10:41:18.625Z,95284.63
2023-04-12T10:43:47.259Z,95310.31
2023-04-12T10:46:52.577Z,95310.09
2023-04-12T10:49:20.640Z,95316.81
2023-04-12T10:52:17.108Z,95320.78
2023-04-12T10:54:44.959Z,95333.25
2023-04-12T10:57:49.509Z,95340.75
2023-04-12T11:00:18.090Z,95332.09
2023-04-12T11:03:11.929Z,95327.19
2023-04-12T11:06:12.493Z,95321.50
2023-04-12T11:08:48.599Z,95316.91
2023-04-12T11:11:20.973Z,95329.25
2023-04-12T11:13:55.476Z,95330.25
2023-04-12T11:16:23.283Z,95329.72
2023-04-12T11:18:51.731Z,95320.81
2023-04-12T11:21:20.530Z,95313.31
2023-04-12T11:23:50.213Z,95312.56
2023-04-12T11:26:21.257Z,95307.06
2023-04-12T11:28:53.132Z,95300.53
2023-04-12T11:31:21.974Z,95293.59
2023-04-12T11:33:49.762Z,95293.09
2023-04-12T11:36:18.889Z,95292.50
2023-04-12T11:38:50.241Z,95281.91
2023-04-12T11:41:18.661Z,95286.06
2023-04-12T11:43:47.607Z,95282.00
2023-04-12T11:46:18.284Z,95288.50
2023-04-12T11:48:46.900Z,95286.47
2023-04-12T11:51:21.461Z,95289.22
2023-04-12T11:53:54.105Z,95291.22
2023-04-12T11:56:22.068Z,95279.06
2023-04-12T11:58:50.045Z,95285.44
2023-04-12T12:01:21.405Z,95290.97
2023-04-12T12:03:50.447Z,95278.50
2023-04-12T12:06:20.753Z,95284.22
2023-04-12T12:08:50.788Z,95259.81
2023-04-12T12:11:19.237Z,95271.09
2023-04-12T12:13:48.679Z,95263.31
2023-04-12T12:16:17.658Z,95263.31
2023-04-12T12:18:52.370Z,95269.69
2023-04-12T12:21:21.296Z,95272.56
2023-04-12T12:23:50.235Z,95275.91
2023-04-12T12:26:22.538Z,95268.94
2023-04-12T12:28:52.039Z,95281.16
2023-04-12T12:31:22.460Z,95266.94
2023-04-12T12:33:56.839Z,95271.91
2023-04-12T12:36:32.350Z,95269.03
2023-04-12T12:39:06.946Z,95271.28
2023-04-12T12:41:35.537Z,95281.44
2023-04-12T12:44:04.240Z,95294.03
2023-04-12T12:46:50.560Z,95278.38
2023-04-12T12:49:20.531Z,95271.91
2023-04-12T12:51:48.323Z,95283.75
2023-04-12T12:54:31.665Z,95281.56
2023-04-12T12:57:05.583Z,95275.13
2023-04-12T12:59:33.454Z,95283.53
2023-04-12T13:02:01.322Z,95275.72
2023-04-12T13:04:30.615Z,95264.66
2023-04-12T13:06:58.526Z,95266.66
2023-04-12T13:09:26.356Z,95259.03
2023-04-12T13:11:54.490Z,95249.19
2023-04-12T13:14:22.263Z,95262.84
2023-04-12T13:16:50.083Z,95250.69
2023-04-12T13:19:17.837Z,95248.34
2023-04-12T13:21:47.427Z,95228.22
2023-04-12T13:24:15.491Z,95239.44
2023-04-12T13:26:43.286Z,95244.69
2023-04-12T13:29:11.466Z,95235.81
2023-04-12T13:31:39.232Z,95233.66
2023-04-12T13:34:07.006Z,95227.47
2023-04-12T13:36:34.885Z,95222.28
2023-04-12T13:39:04.110Z,95215.75
2023-04-12T13:41:32.973Z,95212.16
2023-04-12T13:44:00.925Z,95208.06
2023-04-12T13:46:28.879Z,95214.00
2023-04-12T13:48:57.122Z,95208.94
2023-04-12T13:51:26.545Z,95208.69
2023-04-12T13:53:54.848Z,95201.28
2023-04-12T13:56:30.145Z,95178.69
2023-04-12T13:58:59.231Z,95203.13
2023-04-12T14:01:27.503Z,95208.56
2023-04-12T14:03:55.841Z,95205.38
2023-04-12T14:06:23.835Z,95191.88
2023-04-12T14:08:52.190Z,95196.53
2023-04-12T14:11:20.075Z,95201.31
2023-04-12T14:13:49.375Z,95195.28
2023-04-12T14:16:17.278Z,95187.53
2023-04-12T14:18:45.640Z,95183.03
2023-04-12T14:21:13.482Z,95185.00
2023-04-12T14:23:41.580Z,95186.66
2023-04-12T14:26:09.630Z,95200.28
2023-04-12T14:28:37.466Z,95191.97
2023-04-12T14:31:07.211Z,95189.91
2023-04-12T14:33:34.957Z,95188.53
2023-04-12T14:36:05.084Z,95185.78
2023-04-12T14:38:33.358Z,95186.81
2023-04-12T14:41:01.272Z,95185.34
2023-04-12T14:43:29.276Z,95192.19
2023-04-12T14:45:57.078Z,95181.50
2023-04-12T14:48:26.452Z,95177.00
2023-04-12T14:50:55.605Z,95187.75
2023-04-12T14:53:23.589Z,95181.25
2023-04-12T14:55:51.837Z,95197.69
2023-04-12T14:58:19.569Z,95197.88
2023-04-12T15:00:49.043Z,95164.63
2023-04-12T15:03:17.751Z,95188.84
2023-04-12T15:05:47.103Z,95197.56
2023-04-12T15:08:14.925Z,95197.44
2023-04-12T15:10:42.786Z,95183.19
2023-04-12T15:13:11.194Z,95195.13
2023-04-12T15:15:38.941Z,95190.25
2023-04-12T15:18:06.983Z,95202.41
2023-04-12T15:20:35.980Z,95199.78
2023-04-12T15:23:06.635Z,95206.75
2023-04-12T15:25:34.470Z,95197.41
2023-04-12T15:28:03.011Z,95217.31
2023-04-12T15:30:31.850Z,95202.63
2023-04-12T15:32:59.728Z,95213.38
2023-04-12T15:35:27.757Z,95210.41
2023-04-12T15:37:56.226Z,95213.13
2023-04-12T15:40:25.900Z,95204.00
2023-04-12T15:42:53.949Z,95200.00
2023-04-12T15:45:22.100Z,95208.84
2023-04-12T15:47:49.908Z,95212.03
2023-04-12T15:50:19.365Z,95210.69
2023-04-12T15:52:47.478Z,95206.66
2023-04-12T15:55:17.094Z,95196.50
2023-04-12T15:57:47.029Z,95209.84
2023-04-12T16:00:23.801Z,95176.16
2023-04-12T16:02:56.154Z,95198.03
2023-04-12T16:05:26.537Z,95188.75
2023-04-12T16:07:54.898Z,95205.09
2023-04-12T16:10:23.878Z,95204.56
2023-04-12T16:12:54.582Z,95163.38
2023-04-12T16:15:22.618Z,95215.53
2023-04-12T16:17:53.271Z,95219.31
2023-04-12T16:20:22.028Z,95221.19
2023-04-12T16:22:54.221Z,95218.50
2023-04-12T16:25:23.339Z,95205.13
2023-04-12T16:27:51.245Z,95218.53
2023-04-12T16:30:20.723Z,95214.53
2023-04-12T16:32:48.843Z,95214.25
2023-04-12T16:35:17.326Z,95202.75
2023-04-12T16:37:46.030Z,95197.63
2023-04-12T16:40:14.326Z,95201.38
2023-04-12T16:42:42.601Z,95180.25
2023-04-12T16:45:14.594Z,95201.91
2023-04-12T16:47:43.955Z,95198.19
2023-04-12T16:50:13.168Z,95200.03
2023-04-12T16:52:41.715Z,95187.47
2023-04-12T16:55:12.332Z,95211.28
2023-04-12T16:57:41.124Z,95165.00
2023-04-12T17:00:21.105Z,95193.88
2023-04-12T17:02:53.125Z,95202.47
2023-04-12T17:05:21.167Z,95195.22
2023-04-12T17:07:52.208Z,95185.31
2023-04-12T17:10:22.454Z,95181.56
2023-04-12T17:12:52.131Z,95192.28
2023-04-12T17:15:22.012Z,95176.78
2023-04-12T17:17:53.182Z,95172.19
2023-04-12T17:20:23.188Z,95181.84
2023-04-12T17:22:52.133Z,95177.81
2023-04-12T17:25:21.342Z,95180.50
2023-04-12T17:27:50.809Z,95182.66
2023-04-12T17:30:18.717Z,95172.47
2023-04-12T17:32:48.323Z,95164.19
2023-04-12T17:35:18.759Z,95163.41
2023-04-12T17:37:47.395Z,95154.28
2023-04-12T17:40:15.877Z,95177.84
2023-04-12T17:42:44.555Z,95180.25
2023-04-12T17:45:14.513Z,95190.41
2023-04-12T17:47:42.904Z,95190.13
2023-04-12T17:50:12.349Z,95205.38
2023-04-12T17:52:42.446Z,95206.16
2023-04-12T17:55:12.610Z,95207.22
2023-04-12T17:57:40.514Z,95228.63
2023-04-12T18:00:11.750Z,95239.53
2023-04-12T18:02:39.969Z,95247.75
2023-04-12T18:05:08.732Z,95250.44
2023-04-12T18:07:37.032Z,95270.72
2023-04-12T18:10:07.872Z,95270.69
2023-04-12T18:12:35.774Z,95291.13
2023-04-12T18:15:03.716Z,95306.19
2023-04-12T18:17:31.558Z,95319.19
2023-04-12T18:20:01.292Z,95314.59
2023-04-12T18:22:30.662Z,95330.31
2023-04-12T18:24:58.549Z,95329.88
2023-04-12T18:27:27.769Z,95341.53
2023-04-12T18:29:56.531Z,95348.91
2023-04-12T18:32:24.376Z,95346.97
2023-04-12T18:34:52.692Z,95351.19
2023-04-12T18:37:20.822Z,95353.34
2023-04-12T18:39:50.080Z,95360.19
2023-04-12T18:42:18.986Z,95366.53
2023-04-12T18:44:48.112Z,95370.19
2023-04-12T18:47:15.930Z,95382.28
2023-04-12T18:49:43.706Z,95382.34
2023-04-12T18:52:11.482Z,95377.13
2023-04-12T18:54:39.206Z,95374.72
2023-04-12T18:57:07.024Z,95377.47
2023-04-12T18:59:34.842Z,95379.91
2023-04-12T19:02:04.014Z,95384.81
2023-04-12T19:04:31.937Z,95395.91
2023-04-12T19:07:02.480Z,95395.31
2023-04-12T19:09:33.510Z,95389.75
2023-04-12T19:12:03.558Z,95398.88
2023-04-12T19:14:34.984Z,95405.25
2023-04-12T19:17:05.125Z,95419.06
2023-04-12T19:19:33.697Z,95386.94
2023-04-12T19:22:04.126Z,95401.69
2023-04-12T19:24:33.247Z,95406.16
2023-04-12T19:27:02.019Z,95392.66
2023-04-12T19:29:31.631Z,95395.09
2023-04-12T19:32:03.044Z,95400.94
2023-04-12T19:34:34.933Z,95424.91
2023-04-12T19:37:04.415Z,95428.47
2023-04-12T19:39:33.248Z,95422.00
2023-04-12T19:42:05.771Z,95416.28
2023-04-12T19:44:37.784Z,95443.16
2023-04-12T19:47:08.933Z,95437.50
2023-04-12T19:49:40.419Z,95439.44
2023-04-12T19:52:10.388Z,95414.66
2023-04-12T19:54:40.229Z,95439.63
2023-04-12T19:57:09.498Z,95443.16
2023-04-12T19:59:38.753Z,95449.16
2023-04-12T20:02:08.725Z,95451.06
2023-04-12T20:04:40.816Z,95428.38
2023-04-12T20:07:09.889Z,95425.06
2023-04-12T20:09:41.725Z,95389.59
2023-04-12T20:12:12.631Z,95425.72
2023-04-12T20:14:42.844Z,95418.88
2023-04-12T20:17:12.151Z,95422.91
2023-04-12T20:19:43.239Z,95432.00
2023-04-12T20:22:13.184Z,95421.63
2023-04-12T20:24:41.712Z,95430.13
2023-04-12T20:27:11.432Z,95404.75
2023-04-12T20:29:40.913Z,95413.03
2023-04-12T20:32:09.892Z,95422.13
2023-04-12T20:34:38.477Z,95410.16
2023-04-12T20:37:10.257Z,95427.84
2023-04-12T20:39:41.165Z,95410.06
2023-04-12T20:42:13.084Z,95426.47
2023-04-12T20:44:42.421Z,95433.16
2023-04-12T20:47:11.783Z,95425.41
2023-04-12T20:49:39.806Z,95386.19
2023-04-12T20:52:11.020Z,95420.13
2023-04-12T20:54:42.343Z,95425.19
2023-04-12T20:57:11.926Z,95417.19
2023-04-12T20:59:40.139Z,95425.19
2023-04-12T21:02:09.267Z,95435.59
2023-04-12T21:04:39.638Z,95488.34
2023-04-12T21:07:09.173Z,95490.22
2023-04-12T21:09:37.477Z,95508.56
2023-04-12T21:12:07.252Z,95526.13
2023-04-12T21:14:35.582Z,95517.56
2023-04-12T21:17:04.979Z,95527.78
2023-04-12T21:19:33.095Z,95515.38
2023-04-12T21:22:01.130Z,95516.44
2023-04-12T21:24:31.175Z,95528.34
2023-04-12T21:26:59.896Z,95555.81
2023-04-12T21:31:58.204Z,95543.00
2023-04-12T21:34:26.052Z,95547.63
2023-04-12T21:36:55.261Z,95537.63
2023-04-12T21:39:23.143Z,95536.34
2023-04-12T21:41:52.460Z,95502.97
2023-04-12T21:44:20.550Z,95546.16
2023-04-12T21:46:48.616Z,95534.72
2023-04-12T21:49:16.509Z,95540.97
2023-04-12T21:51:45.991Z,95559.56
2023-04-12T21:54:14.047Z,95579.31
2023-04-12T21:56:41.900Z,95566.38
2023-04-12T21:59:11.358Z,95549.50
2023-04-12T22:01:39.356Z,95551.09
2023-04-12T22:04:07.835Z,95533.84
2023-04-12T22:06:35.826Z,95573.81
2023-04-12T22:09:04.775Z,95550.59
2023-04-12T22:11:32.954Z,95520.31
2023-04-12T22:14:01.534Z,95543.66
2023-04-12T22:16:31.200Z,95574.66
2023-04-12T22:18:59.487Z,95579.25
2023-04-12T22:21:28.424Z,95587.91
2023-04-12T22:23:56.374Z,95576.25
2023-04-12T22:26:24.314Z,95578.47
2023-04-12T22:28:52.387Z,95584.81
2023-04-12T22:31:22.970Z,95579.16
2023-04-12T22:33:54.884Z,95552.22
2023-04-12T22:36:28.509Z,95591.88
2023-04-12T22:38:57.831Z,95586.56
2023-04-12T22:41:28.674Z,95589.22
2023-04-12T22:44:01.291Z,95577.56
2023-04-12T22:46:32.234Z,95571.97
2023-04-12T22:49:02.114Z,95541.72
2023-04-12T22:51:31.676Z,95560.19
2023-04-12T22:53:59.722Z,95585.41
2023-04-12T22:56:29.278Z,95586.56
2023-04-12T22:58:57.325Z,95603.88
2023-04-12T23:01:25.328Z,95589.00
2023-04-12T23:03:54.156Z,95600.88
2023-04-12T23:06:23.261Z,95588.31
2023-04-12T23:08:51.057Z,95575.84
2023-04-12T23:11:19.155Z,95573.03
2023-04-12T23:13:47.131Z,95591.66
2023-04-12T23:16:16.232Z,95586.47
2023-04-12T23:18:45.013Z,95599.84
2023-04-12T23:21:12.991Z,95594.66
2023-04-12T23:23:43.265Z,95592.25
2023-04-12T23:26:11.989Z,95598.81
2023-04-12T23:28:40.595Z,95603.22
2023-04-12T23:31:09.115Z,95601.00
2023-04-12T23:33:38.751Z,95610.03
2023-04-12T23:36:07.319Z,95582.28
2023-04-12T23:38:35.194Z,95606.91
2023-04-12T23:41:06.662Z,95580.56
2023-04-12T23:43:35.353Z,95604.97
2023-04-12T23:46:04.393Z,95605.06
2023-04-12T23:48:33.233Z,95600.69
2023-04-12T23:51:01.060Z,95602.63
2023-04-12T23:53:28.952Z,95577.44
2023-04-12T23:55:56.787Z,95597.44
2023-04-12T23:58:26.514Z,95568.56
